PILOTS ONLINE: 494    ATC ONLINE: 89

CYSK - Sanikiluaq Airport

Location

IATA YSK
City Sanikiluaq
Country  Canada
Latitude 56° 32' 16" N
Longitude 79° 14' 48" W
Elevation 104 ft
Type Medium Airport

Runways

09/27 3800 ft / 0 ft

Weather

METAR
2014/07/31 17:00
CYSK 311700Z 02012KT 15SM FEW140 BKN220 10/08 A2996 RMK AS2CS2 SLP147
TAF
No TAF available

Outbound flights

Inbound flights